Al Ahsa, Saudi Arabia
Current Conditions -  °F | °C
As of 11:00 PM on Tuesday 21 Oct 2014 (Local Time) from OEAH Reporting Station
Clear Clear  
Wind Chill: 79°   Ceiling: Unl
Heat Index: 81°   Visibility: 6mi
Dew Point: 64°   Wind: 12mph
Humidity: 61%   Direction: 360°N
Pressure: 29.97"   Gusts: NA
Location:  25.3°N, 49.48°E
Report Text: OEAH 212000Z 36010KT CAVOK 26/18 Q1015 NOSIG
Loading
Personal Weather Stations






























Interactive Weather Map
Tropical Storm Tracking
New forecast layout! Learn more

10-Day Weather Forecast

Advertisements
Track Severe Weather on mobile